Time;durP1;ratioP1;P1;durP2;ratioP2;P2;SDS_P1;SDS_P2;PMS_P1;PMS_P2;Temp;Humidity;BMP_temperature;BMP_pressure;BME280_temperature;BME280_humidity;BME280_pressure;Samples;Min_cycle;Max_cycle;Signal;HPM_P1;HPM_P2
2023/06/09 00:01:35;;;;;;;6.80;2.83;;;;;;;17.54;70.77;94398.31;5144660;27;20196;-70
2023/06/09 00:04:02;;;;;;;4.82;3.13;;;;;;;17.52;70.65;94400.66;5134559;27;20272;-70
2023/06/09 00:06:31;;;;;;;5.97;2.92;;;;;;;17.51;70.90;94401.81;5131945;27;20759;-70
2023/06/09 00:08:58;;;;;;;5.78;3.13;;;;;;;17.44;71.12;94407.25;5134637;27;20820;-70
2023/06/09 00:11:25;;;;;;;4.97;3.42;;;;;;;17.28;71.62;94404.72;5140182;27;20232;-70
2023/06/09 00:13:52;;;;;;;4.95;3.03;;;;;;;17.23;71.67;94402.31;5148615;27;20198;-70
2023/06/09 00:16:19;;;;;;;5.65;3.20;;;;;;;17.31;70.43;94403.97;5134989;27;20225;-70
2023/06/09 00:18:46;;;;;;;5.50;3.20;;;;;;;17.27;70.19;94405.09;5141565;27;20192;-70
2023/06/09 00:21:15;;;;;;;5.20;3.03;;;;;;;17.17;71.04;94403.03;5137816;27;20203;-70
2023/06/09 00:23:44;;;;;;;6.82;3.38;;;;;;;17.25;70.44;94407.41;5130126;27;20602;-70
2023/06/09 00:26:11;;;;;;;4.85;3.42;;;;;;;17.12;71.26;94411.56;5140882;27;20197;-70
2023/06/09 00:28:38;;;;;;;4.65;2.45;;;;;;;16.97;71.79;94403.22;5137730;27;20629;-70
2023/06/09 00:31:04;;;;;;;7.05;2.80;;;;;;;16.86;71.78;94405.03;5133854;27;20601;-70
2023/06/09 00:33:32;;;;;;;8.15;2.92;;;;;;;16.79;71.46;94404.97;5141262;27;20204;-70
2023/06/09 00:35:59;;;;;;;3.88;2.72;;;;;;;16.81;72.27;94408.09;5139597;27;20273;-70
2023/06/09 00:38:25;;;;;;;4.35;2.83;;;;;;;16.73;72.17;94411.91;5133905;27;20196;-70
2023/06/09 00:40:54;;;;;;;5.35;3.00;;;;;;;16.83;71.53;94397.56;5133402;27;20733;-70
2023/06/09 00:43:21;;;;;;;4.68;2.78;;;;;;;16.78;71.28;94397.13;5144965;27;20196;-70
2023/06/09 00:45:47;;;;;;;6.45;3.45;;;;;;;16.72;70.81;94398.59;5135832;27;20201;-69
2023/06/09 00:48:14;;;;;;;6.60;2.80;;;;;;;16.70;71.13;94407.16;5131156;27;20273;-69
2023/06/09 00:50:41;;;;;;;7.93;3.53;;;;;;;16.64;70.57;94398.53;5144874;27;20189;-69
2023/06/09 00:53:09;;;;;;;7.35;2.92;;;;;;;16.65;70.77;94402.03;5142294;27;20200;-69
2023/06/09 00:55:40;;;;;;;7.18;3.03;;;;;;;16.66;70.36;94404.41;5133000;27;20273;-69
2023/06/09 00:58:09;;;;;;;4.50;3.05;;;;;;;16.66;70.04;94400.88;5142558;27;20215;-70
2023/06/09 01:00:38;;;;;;;4.10;2.78;;;;;;;16.64;70.59;94398.53;5140548;27;20200;-69
2023/06/09 01:03:09;;;;;;;4.28;2.60;;;;;;;16.55;70.26;94394.44;5139377;27;20196;-69
2023/06/09 01:05:38;;;;;;;4.68;2.70;;;;;;;16.48;70.39;94391.63;5130426;27;20279;-70
2023/06/09 01:08:10;;;;;;;4.13;2.78;;;;;;;16.47;70.61;94393.56;5140489;27;20220;-71
2023/06/09 01:10:42;;;;;;;11.77;2.85;;;;;;;16.40;70.67;94398.94;5137356;27;20231;-70
2023/06/09 01:13:20;;;;;;;4.30;2.88;;;;;;;16.26;71.40;94394.06;5143046;27;20211;-69
2023/06/09 01:15:53;;;;;;;5.90;3.00;;;;;;;16.15;71.38;94393.13;5143454;27;20600;-69
2023/06/09 01:18:24;;;;;;;4.00;2.67;;;;;;;16.20;71.28;94389.28;5143058;27;20189;-69
2023/06/09 01:21:06;;;;;;;4.40;2.83;;;;;;;16.09;71.54;94389.13;5141066;27;20287;-69
2023/06/09 01:23:40;;;;;;;4.88;3.33;;;;;;;16.04;72.30;94392.19;5142130;27;20180;-70
2023/06/09 01:26:09;;;;;;;2.95;2.45;;;;;;;15.92;71.45;94395.13;5146094;27;20185;-70
2023/06/09 01:28:38;;;;;;;5.85;2.67;;;;;;;15.78;72.02;94394.88;5140272;27;20193;-70
2023/06/09 01:31:08;;;;;;;5.10;2.50;;;;;;;15.81;71.78;94399.63;5135207;27;20723;-69
2023/06/09 01:33:36;;;;;;;4.63;3.03;;;;;;;15.76;71.18;94402.66;5145315;27;20208;-69
2023/06/09 01:36:03;;;;;;;4.85;3.05;;;;;;;15.75;70.68;94399.13;5142563;27;20197;-69
2023/06/09 01:38:30;;;;;;;5.13;2.45;;;;;;;15.70;70.93;94406.88;5137614;27;20219;-69
2023/06/09 01:40:57;;;;;;;6.45;2.63;;;;;;;15.64;71.12;94412.63;5139552;27;20192;-70
2023/06/09 01:43:25;;;;;;;3.97;2.55;;;;;;;15.54;71.30;94418.66;5148538;27;20244;-69
2023/06/09 01:45:52;;;;;;;4.15;2.90;;;;;;;15.52;70.99;94420.97;5139821;27;20189;-69
2023/06/09 01:48:25;;;;;;;3.47;2.33;;;;;;;15.53;70.74;94417.09;5135263;27;20617;-71
2023/06/09 01:50:56;;;;;;;3.65;2.80;;;;;;;15.61;70.72;94413.34;5149237;27;20246;-71
2023/06/09 01:53:27;;;;;;;4.10;2.47;;;;;;;15.61;70.78;94413.34;5145923;27;20196;-71
2023/06/09 01:55:59;;;;;;;7.28;2.90;;;;;;;15.61;71.23;94407.88;5136287;27;20185;-71
2023/06/09 01:58:32;;;;;;;4.43;2.35;;;;;;;15.66;71.03;94419.66;5132829;27;20239;-70
2023/06/09 02:01:01;;;;;;;5.45;2.83;;;;;;;15.54;71.66;94407.75;5138961;27;20264;-69
2023/06/09 02:03:31;;;;;;;8.93;2.90;;;;;;;15.52;71.48;94414.72;5146274;27;20205;-70
2023/06/09 02:06:01;;;;;;;3.83;2.70;;;;;;;15.43;72.20;94401.31;5153088;27;20192;-69
2023/06/09 02:08:30;;;;;;;3.75;2.75;;;;;;;15.33;72.03;94407.34;5140047;27;20220;-70
2023/06/09 02:10:57;;;;;;;3.83;2.40;;;;;;;15.25;71.98;94400.22;5141495;27;20196;-70
2023/06/09 02:13:24;;;;;;;5.65;2.40;;;;;;;15.15;72.51;94406.25;5149685;27;20659;-69
2023/06/09 02:15:52;;;;;;;3.85;2.58;;;;;;;15.16;72.13;94407.84;5141733;27;20193;-70
2023/06/09 02:18:21;;;;;;;4.03;2.65;;;;;;;15.11;72.25;94410.84;5142327;27;20265;-70
2023/06/09 02:20:48;;;;;;;4.05;2.83;;;;;;;15.13;72.48;94408.56;5147610;27;20271;-70
2023/06/09 02:23:15;;;;;;;6.30;2.47;;;;;;;15.01;72.68;94406.00;5140008;27;20703;-69
2023/06/09 02:25:42;;;;;;;2.88;2.30;;;;;;;15.08;72.48;94414.31;5143748;27;20731;-69
2023/06/09 02:28:09;;;;;;;4.13;2.55;;;;;;;15.04;73.10;94413.44;5145772;27;20212;-69
2023/06/09 02:30:36;;;;;;;8.50;3.20;;;;;;;15.07;72.93;94415.44;5133299;27;20240;-70
2023/06/09 02:33:04;;;;;;;5.18;2.65;;;;;;;14.93;73.52;94421.41;5140385;27;20942;-69
2023/06/09 02:35:32;;;;;;;5.40;3.00;;;;;;;15.02;72.86;94421.22;5138980;27;20675;-69
2023/06/09 02:38:00;;;;;;;5.07;2.63;;;;;;;15.07;73.19;94416.22;5137486;27;20377;-69
2023/06/09 02:40:29;;;;;;;3.55;2.45;;;;;;;14.98;73.74;94412.94;5133827;27;20672;-69
2023/06/09 02:42:56;;;;;;;4.40;2.90;;;;;;;14.93;74.18;94414.03;5137892;27;20208;-69
2023/06/09 02:45:23;;;;;;;5.35;3.22;;;;;;;15.01;73.83;94416.91;5142729;27;20197;-69
2023/06/09 02:47:50;;;;;;;4.97;2.40;;;;;;;15.02;74.71;94418.47;5150837;27;20192;-70
2023/06/09 02:50:19;;;;;;;3.75;2.60;;;;;;;14.95;73.86;94419.13;5138904;27;20705;-70
2023/06/09 02:52:46;;;;;;;5.65;2.85;;;;;;;14.90;73.94;94403.81;5143001;27;20195;-70
2023/06/09 02:55:12;;;;;;;5.47;3.10;;;;;;;14.96;74.13;94403.53;5138556;27;20201;-70
2023/06/09 02:57:39;;;;;;;8.32;3.10;;;;;;;14.96;73.93;94411.72;5143527;27;20254;-70
2023/06/09 03:00:08;;;;;;;6.18;2.67;;;;;;;14.99;73.61;94413.75;5138040;27;20560;-70
2023/06/09 03:02:34;;;;;;;8.40;2.78;;;;;;;15.15;73.27;94414.44;5135319;27;20205;-70
2023/06/09 03:05:01;;;;;;;6.10;3.08;;;;;;;15.26;72.85;94418.94;5152350;27;20654;-70
2023/06/09 03:07:31;;;;;;;6.13;2.70;;;;;;;15.57;72.41;94406.25;5150189;27;20223;-70
2023/06/09 03:09:58;;;;;;;3.65;2.60;;;;;;;15.89;71.25;94406.78;5152433;27;20220;-70
2023/06/09 03:12:24;;;;;;;4.93;2.97;;;;;;;16.52;68.97;94411.63;5152038;27;20200;-71
2023/06/09 03:14:51;;;;;;;4.53;2.67;;;;;;;17.05;66.79;94404.09;5134872;27;20672;-71
2023/06/09 03:17:18;;;;;;;4.45;2.80;;;;;;;17.39;65.09;94400.13;5136690;27;20240;-70
2023/06/09 03:19:45;;;;;;;4.32;2.58;;;;;;;17.97;63.75;94393.25;5151536;27;20307;-71
2023/06/09 03:22:12;;;;;;;7.50;3.00;;;;;;;18.86;61.40;94383.59;5151722;27;20204;-70
2023/06/09 03:24:40;;;;;;;4.28;2.47;;;;;;;19.70;58.59;94386.97;5151243;27;20651;-71
2023/06/09 03:27:07;;;;;;;4.82;3.40;;;;;;;20.32;56.73;94381.88;5140521;27;20660;-71
2023/06/09 03:29:34;;;;;;;3.92;2.58;;;;;;;21.24;54.86;94381.59;5141051;27;20304;-71
2023/06/09 03:32:00;;;;;;;4.22;2.83;;;;;;;21.72;52.47;94374.63;5131474;27;20189;-69
2023/06/09 03:34:29;;;;;;;4.75;2.63;;;;;;;22.36;52.64;94366.63;5139929;27;20200;-71
2023/06/09 03:36:55;;;;;;;4.82;3.20;;;;;;;22.53;50.04;94368.44;5132893;27;20225;-71
2023/06/09 03:39:23;;;;;;;5.53;3.13;;;;;;;22.82;49.34;94371.72;5150213;27;20620;-69
2023/06/09 03:41:54;;;;;;;8.02;3.28;;;;;;;22.92;50.67;94370.00;5151008;27;20200;-70
2023/06/09 03:44:20;;;;;;;3.63;2.70;;;;;;;22.84;52.19;94374.03;5144111;27;20196;-70
2023/06/09 03:46:47;;;;;;;4.57;3.30;;;;;;;23.40;50.81;94373.31;5150892;27;20193;-70
2023/06/09 03:49:14;;;;;;;5.53;3.17;;;;;;;23.68;50.30;94382.44;5151497;27;20204;-71
2023/06/09 03:51:40;;;;;;;4.78;3.53;;;;;;;24.42;49.21;94374.97;5151121;27;20253;-71
2023/06/09 03:54:07;;;;;;;4.97;2.95;;;;;;;24.96;47.32;94369.25;5150706;27;20539;-69
2023/06/09 03:56:34;;;;;;;5.10;2.97;;;;;;;25.33;45.00;94371.63;5150547;27;20204;-70
2023/06/09 03:59:02;;;;;;;5.97;3.20;;;;;;;26.09;44.28;94377.13;5146949;27;20220;-70
2023/06/09 04:01:30;;;;;;;4.28;2.63;;;;;;;26.19;40.27;94373.28;5138336;27;20205;-70
2023/06/09 04:03:57;;;;;;;7.13;2.97;;;;;;;26.68;42.03;94371.25;5147010;27;20593;-70
2023/06/09 04:06:24;;;;;;;4.93;3.17;;;;;;;26.92;42.65;94371.03;5137991;27;20246;-70
2023/06/09 04:08:51;;;;;;;5.13;3.13;;;;;;;26.88;39.87;94376.69;5139148;27;20220;-70
2023/06/09 04:11:18;;;;;;;3.90;3.33;;;;;;;26.86;40.03;94379.91;5150926;27;20240;-70
2023/06/09 04:13:48;;;;;;;5.10;3.35;;;;;;;28.37;38.34;94382.66;5150864;27;20703;-71
2023/06/09 04:16:16;;;;;;;4.68;3.72;;;;;;;27.81;39.52;94380.41;5146573;27;20207;-71
2023/06/09 04:18:43;;;;;;;9.18;3.80;;;;;;;28.21;39.35;94387.13;5146556;27;20231;-71
2023/06/09 04:21:11;;;;;;;7.93;3.50;;;;;;;28.84;37.81;94386.22;5138028;27;20196;-71
2023/06/09 04:23:38;;;;;;;6.22;3.65;;;;;;;29.38;36.54;94387.94;5142562;27;20223;-71
2023/06/09 04:26:08;;;;;;;5.40;4.07;;;;;;;30.02;36.19;94399.50;5137374;27;20303;-71
2023/06/09 04:28:34;;;;;;;5.28;3.70;;;;;;;29.91;35.84;94396.31;5141358;27;20590;-71
2023/06/09 04:31:02;;;;;;;5.25;3.20;;;;;;;30.56;34.71;94389.75;5144030;27;20228;-70
2023/06/09 04:33:30;;;;;;;6.97;3.83;;;;;;;30.69;33.67;94393.97;5150130;27;20280;-70
2023/06/09 04:35:57;;;;;;;4.00;3.15;;;;;;;30.95;33.54;94400.06;5150857;27;20200;-70
2023/06/09 04:38:25;;;;;;;6.53;3.30;;;;;;;31.12;33.19;94397.00;5149979;27;20498;-70
2023/06/09 04:40:51;;;;;;;6.70;3.20;;;;;;;30.65;33.74;94403.75;5144986;27;20201;-70
2023/06/09 04:43:19;;;;;;;4.70;3.28;;;;;;;30.32;33.65;94397.91;5129729;27;20197;-70
2023/06/09 04:45:47;;;;;;;6.93;3.20;;;;;;;31.37;32.97;94403.06;5130017;27;20241;-70
2023/06/09 04:48:13;;;;;;;5.90;3.25;;;;;;;31.88;30.96;94393.19;5129937;27;20205;-70
2023/06/09 04:50:44;;;;;;;8.48;3.20;;;;;;;32.20;31.26;94395.28;5129926;27;20543;-70
2023/06/09 04:53:11;;;;;;;6.68;3.30;;;;;;;31.90;31.35;94399.88;5129758;27;20203;-70
2023/06/09 04:55:38;;;;;;;5.65;3.65;;;;;;;30.63;33.37;94409.03;5129880;27;20205;-70
2023/06/09 04:58:05;;;;;;;4.90;3.45;;;;;;;31.30;32.59;94397.00;5129743;27;20235;-71
2023/06/09 05:00:32;;;;;;;4.28;3.63;;;;;;;31.75;31.51;94399.75;5136215;27;20257;-71
2023/06/09 05:02:59;;;;;;;8.23;3.53;;;;;;;31.72;31.80;94406.28;5150407;27;20540;-71
2023/06/09 05:05:26;;;;;;;9.30;3.42;;;;;;;31.20;32.70;94410.22;5150668;27;20663;-70
2023/06/09 05:07:55;;;;;;;5.32;3.40;;;;;;;31.38;32.03;94415.03;5136886;27;20225;-70
2023/06/09 05:10:21;;;;;;;7.30;3.53;;;;;;;30.77;33.45;94411.22;5136372;27;20244;-70
2023/06/09 05:12:49;;;;;;;5.35;3.50;;;;;;;30.92;33.16;94406.59;5150578;27;20208;-71
2023/06/09 05:15:16;;;;;;;6.38;3.38;;;;;;;31.57;32.09;94388.56;5143544;27;20596;-70
2023/06/09 05:17:43;;;;;;;5.07;3.53;;;;;;;31.69;31.50;94395.28;5129598;27;20710;-70
2023/06/09 05:20:10;;;;;;;7.35;3.47;;;;;;;31.53;31.80;94393.56;5128938;27;20219;-71
2023/06/09 05:22:38;;;;;;;4.30;3.45;;;;;;;31.12;33.01;94397.00;5129380;27;20201;-70
2023/06/09 05:25:09;;;;;;;7.90;3.60;;;;;;;30.31;33.84;94397.13;5129693;27;20624;-71
2023/06/09 05:27:36;;;;;;;6.18;3.90;;;;;;;29.24;34.80;94400.38;5144977;27;20300;-70
2023/06/09 05:30:02;;;;;;;5.45;3.95;;;;;;;30.40;33.64;94405.53;5142001;27;20272;-70
2023/06/09 05:32:29;;;;;;;6.50;3.50;;;;;;;31.34;32.17;94403.22;5132394;27;20436;-71
2023/06/09 05:34:56;;;;;;;5.13;3.83;;;;;;;31.19;32.19;94391.88;5140446;27;20201;-71
2023/06/09 05:37:23;;;;;;;5.03;3.17;;;;;;;31.91;31.17;94395.06;5146285;27;20253;-70
2023/06/09 05:39:49;;;;;;;6.43;3.65;;;;;;;32.27;31.21;94394.94;5140843;27;20204;-70
2023/06/09 05:42:18;;;;;;;7.57;3.45;;;;;;;32.47;30.84;94397.19;5129179;27;20220;-71
2023/06/09 05:44:44;;;;;;;6.15;3.40;;;;;;;32.49;30.65;94384.25;5129956;27;20205;-71
2023/06/09 05:47:11;;;;;;;7.22;3.58;;;;;;;31.50;31.76;94394.50;5129214;27;20653;-70
2023/06/09 05:49:38;;;;;;;5.68;3.50;;;;;;;32.93;30.35;94383.69;5129166;27;20201;-70
2023/06/09 05:52:05;;;;;;;9.50;3.47;;;;;;;32.86;30.92;94386.06;5129365;27;20464;-70
2023/06/09 05:54:32;;;;;;;8.63;3.70;;;;;;;31.67;31.56;94381.75;5129783;27;20216;-71
2023/06/09 05:56:59;;;;;;;8.55;3.53;;;;;;;33.09;30.65;94386.06;5147457;27;20650;-71
2023/06/09 05:59:28;;;;;;;9.65;3.67;;;;;;;32.65;29.94;94385.09;5149709;27;20231;-70
2023/06/09 06:01:55;;;;;;;9.02;3.38;;;;;;;31.20;32.01;94387.81;5149860;27;20222;-70
2023/06/09 06:04:22;;;;;;;6.75;3.45;;;;;;;31.98;31.70;94383.53;5153095;27;20208;-70
2023/06/09 06:06:49;;;;;;;4.97;3.63;;;;;;;32.57;30.90;94378.28;5134361;27;20712;-70
2023/06/09 06:09:16;;;;;;;8.15;3.35;;;;;;;33.23;30.61;94378.13;5132679;27;20414;-70
2023/06/09 06:11:42;;;;;;;6.07;3.83;;;;;;;31.05;32.01;94382.03;5132524;27;20205;-70
2023/06/09 06:14:09;;;;;;;7.55;4.13;;;;;;;31.19;32.82;94380.66;5132771;27;20201;-70
2023/06/09 06:16:37;;;;;;;7.65;4.20;;;;;;;31.50;32.39;94372.09;5138837;27;20204;-71
2023/06/09 06:19:04;;;;;;;6.18;3.53;;;;;;;31.95;31.64;94367.66;5153242;27;20238;-70
2023/06/09 06:21:31;;;;;;;4.78;3.40;;;;;;;33.11;30.25;94366.69;5133464;27;20284;-70
2023/06/09 06:23:58;;;;;;;5.60;3.55;;;;;;;34.54;28.12;94368.97;5145835;27;20607;-71
2023/06/09 06:26:24;;;;;;;5.15;3.42;;;;;;;33.62;29.30;94365.66;5147325;27;20242;-70
2023/06/09 06:28:51;;;;;;;4.03;3.17;;;;;;;33.77;28.90;94366.44;5145805;27;20272;-71
2023/06/09 06:31:18;;;;;;;4.95;3.63;;;;;;;33.07;29.76;94368.94;5153190;27;20292;-71
2023/06/09 06:33:46;;;;;;;4.68;3.60;;;;;;;32.80;31.19;94374.75;5153335;27;20607;-72
2023/06/09 06:36:14;;;;;;;4.93;3.60;;;;;;;32.23;30.84;94371.94;5131951;27;20209;-70
2023/06/09 06:38:41;;;;;;;5.40;3.03;;;;;;;33.18;30.41;94371.97;5145763;27;20232;-70
2023/06/09 06:41:07;;;;;;;4.93;3.78;;;;;;;33.06;29.77;94375.03;5131705;27;20677;-70
2023/06/09 06:43:34;;;;;;;8.05;3.58;;;;;;;32.53;30.90;94360.88;5132721;27;20205;-70
2023/06/09 06:46:01;;;;;;;6.13;4.00;;;;;;;33.08;29.78;94366.88;5153409;27;20204;-72
2023/06/09 06:48:28;;;;;;;9.45;4.15;;;;;;;32.03;31.79;94369.63;5138099;27;20549;-70
2023/06/09 06:50:56;;;;;;;6.38;4.20;;;;;;;32.46;30.74;94368.38;5132072;27;20207;-70
2023/06/09 06:53:23;;;;;;;6.35;3.53;;;;;;;31.65;32.09;94370.22;5131920;27;20203;-71
2023/06/09 06:55:50;;;;;;;6.68;3.42;;;;;;;32.73;31.75;94361.06;5132485;27;20257;-70
2023/06/09 06:58:17;;;;;;;5.07;3.67;;;;;;;32.58;30.35;94371.41;5133049;27;20239;-70
2023/06/09 07:00:44;;;;;;;7.50;3.60;;;;;;;32.74;30.65;94366.19;5152711;27;20249;-70
2023/06/09 07:03:11;;;;;;;6.38;3.60;;;;;;;31.82;31.42;94369.88;5136317;27;20238;-70
2023/06/09 07:05:38;;;;;;;7.22;3.70;;;;;;;32.49;30.82;94361.81;5131957;27;20200;-71
2023/06/09 07:08:06;;;;;;;5.50;3.60;;;;;;;32.60;31.46;94350.06;5131697;27;20229;-70
2023/06/09 07:10:34;;;;;;;8.63;3.75;;;;;;;34.01;29.12;94363.53;5131635;27;20722;-71
2023/06/09 07:13:00;;;;;;;7.88;3.75;;;;;;;31.90;32.59;94365.47;5131244;27;20635;-71
2023/06/09 07:15:27;;;;;;;7.28;3.75;;;;;;;31.02;34.07;94371.03;5131547;27;20278;-71
2023/06/09 07:17:54;;;;;;;7.53;3.53;;;;;;;31.73;32.12;94363.03;5148197;27;20252;-71
2023/06/09 07:20:21;;;;;;;7.18;4.00;;;;;;;31.91;32.52;94355.81;5142468;27;20239;-70
2023/06/09 07:22:51;;;;;;;9.20;3.80;;;;;;;32.10;32.17;94362.91;5131724;27;20197;-70
2023/06/09 07:25:19;;;;;;;5.97;3.55;;;;;;;32.73;31.86;94358.25;5131234;27;20273;-71
2023/06/09 07:27:46;;;;;;;6.28;3.95;;;;;;;29.96;34.37;94373.34;5131374;27;20620;-70
2023/06/09 07:30:14;;;;;;;7.88;3.90;;;;;;;30.24;35.02;94363.84;5130489;27;20794;-70
2023/06/09 07:32:40;;;;;;;6.53;3.85;;;;;;;31.46;33.00;94363.06;5135780;27;20204;-70
2023/06/09 07:35:12;;;;;;;7.35;3.60;;;;;;;32.26;32.41;94351.31;5141073;27;20258;-71
2023/06/09 07:37:40;;;;;;;5.90;3.50;;;;;;;33.59;30.67;94349.75;5136342;27;20196;-71
2023/06/09 07:40:08;;;;;;;9.57;4.18;;;;;;;33.77;29.91;94349.56;5139433;27;20225;-71
2023/06/09 07:42:36;;;;;;;8.75;3.70;;;;;;;32.71;31.89;94343.91;5131087;27;20201;-71
2023/06/09 07:45:03;;;;;;;5.72;3.70;;;;;;;32.70;31.65;94354.34;5130853;27;20209;-71
2023/06/09 07:47:30;;;;;;;6.60;3.40;;;;;;;30.98;34.12;94368.38;5130887;27;20630;-70
2023/06/09 07:49:57;;;;;;;7.78;3.90;;;;;;;29.89;35.69;94365.25;5130818;27;20200;-71
2023/06/09 07:52:25;;;;;;;6.65;3.90;;;;;;;30.03;35.58;94364.72;5130602;27;20205;-70
2023/06/09 07:54:52;;;;;;;8.23;3.85;;;;;;;30.40;35.21;94358.00;5130722;27;20205;-70
2023/06/09 07:57:18;;;;;;;8.70;3.63;;;;;;;30.20;35.98;94363.25;5137957;27;20212;-70
2023/06/09 07:59:47;;;;;;;4.75;3.72;;;;;;;30.05;35.62;94356.66;5137764;27;20229;-71
2023/06/09 08:02:13;;;;;;;6.57;4.10;;;;;;;30.31;36.38;94352.41;5130479;27;20208;-70
2023/06/09 08:04:40;;;;;;;4.68;3.78;;;;;;;30.10;36.37;94346.88;5130934;27;20200;-70
2023/06/09 08:07:07;;;;;;;7.95;4.30;;;;;;;30.49;35.29;94334.88;5130889;27;20217;-70
2023/06/09 08:09:34;;;;;;;7.80;3.78;;;;;;;31.14;36.33;94355.34;5130620;27;20208;-70
2023/06/09 08:12:01;;;;;;;8.05;4.20;;;;;;;31.16;35.87;94347.25;5130463;27;20216;-70
2023/06/09 08:14:28;;;;;;;6.00;3.88;;;;;;;30.81;35.61;94350.31;5130628;27;20261;-70
2023/06/09 08:16:56;;;;;;;5.25;4.10;;;;;;;29.81;36.88;94347.22;5130625;27;20560;-71
2023/06/09 08:19:23;;;;;;;5.32;4.00;;;;;;;27.80;39.54;94351.78;5145480;27;20228;-70
2023/06/09 08:21:49;;;;;;;10.73;3.92;;;;;;;27.92;40.50;94344.66;5142136;27;20724;-70
2023/06/09 08:24:17;;;;;;;6.38;4.05;;;;;;;28.94;38.30;94337.69;5129565;27;20208;-70
2023/06/09 08:26:44;;;;;;;9.07;4.30;;;;;;;28.19;39.38;94342.22;5138533;27;20899;-70
2023/06/09 08:29:11;;;;;;;9.95;4.35;;;;;;;29.44;37.60;94329.50;5150806;27;20314;-70
2023/06/09 08:31:39;;;;;;;7.57;4.30;;;;;;;29.42;37.76;94320.78;5150928;27;20284;-71
2023/06/09 08:34:07;;;;;;;7.53;4.57;;;;;;;29.93;37.68;94337.97;5148116;27;20207;-70
2023/06/09 08:36:34;;;;;;;6.47;4.32;;;;;;;28.02;40.33;94342.78;5130354;27;20205;-70
2023/06/09 08:39:01;;;;;;;9.05;4.15;;;;;;;27.98;42.07;94340.09;5129317;27;20794;-70
2023/06/09 08:41:32;;;;;;;9.20;4.47;;;;;;;28.28;40.98;94336.75;5130098;27;20201;-70
2023/06/09 08:43:59;;;;;;;9.10;4.05;;;;;;;28.36;39.19;94336.50;5129956;27;20266;-70
2023/06/09 08:46:26;;;;;;;5.15;3.75;;;;;;;29.31;38.50;94326.75;5130226;27;20213;-71
2023/06/09 08:48:57;;;;;;;6.00;3.75;;;;;;;28.47;39.39;94331.34;5129888;27;20253;-70
2023/06/09 08:51:26;;;;;;;6.47;4.13;;;;;;;28.96;40.05;94323.28;5130275;27;20208;-70
2023/06/09 08:53:54;;;;;;;7.35;4.40;;;;;;;28.86;40.76;94321.63;5129993;27;20548;-71
2023/06/09 08:56:22;;;;;;;8.85;4.32;;;;;;;28.39;40.17;94316.09;5129719;27;20648;-71
2023/06/09 08:58:50;;;;;;;9.75;4.30;;;;;;;29.12;38.52;94319.50;5135213;27;20709;-71
2023/06/09 09:01:18;;;;;;;5.90;4.10;;;;;;;29.35;37.89;94317.03;5150474;27;20200;-71
2023/06/09 09:03:45;;;;;;;6.82;4.25;;;;;;;29.30;39.15;94311.25;5130865;27;20209;-71
2023/06/09 09:06:13;;;;;;;6.35;4.30;;;;;;;28.54;39.31;94331.13;5130002;27;20236;-71
2023/06/09 09:08:41;;;;;;;7.45;4.18;;;;;;;28.03;41.80;94314.44;5129870;27;20308;-71
2023/06/09 09:11:08;;;;;;;9.05;4.43;;;;;;;27.66;40.53;94312.47;5129560;27;20663;-72
2023/06/09 09:13:35;;;;;;;6.88;4.47;;;;;;;27.65;41.19;94319.28;5130008;27;20269;-71
2023/06/09 09:16:02;;;;;;;7.05;4.20;;;;;;;27.59;41.10;94310.72;5129726;27;20220;-71
2023/06/09 09:18:30;;;;;;;8.90;4.45;;;;;;;27.64;42.04;94309.34;5150035;27;20200;-71
2023/06/09 09:20:58;;;;;;;9.20;3.92;;;;;;;27.68;42.01;94304.47;5135961;27;20217;-71
2023/06/09 09:23:30;;;;;;;6.55;4.40;;;;;;;28.10;40.61;94300.31;5137627;27;20670;-71
2023/06/09 09:25:58;;;;;;;7.85;3.85;;;;;;;29.02;39.84;94303.94;5148490;27;20730;-70
2023/06/09 09:28:26;;;;;;;5.93;3.88;;;;;;;28.93;39.37;94294.28;5129706;27;20540;-70
2023/06/09 09:30:54;;;;;;;7.68;4.30;;;;;;;28.62;38.97;94293.38;5129309;27;20290;-72
2023/06/09 09:33:22;;;;;;;6.60;4.40;;;;;;;29.37;38.16;94291.47;5139737;27;20288;-71
2023/06/09 09:35:51;;;;;;;9.48;4.32;;;;;;;29.82;37.72;94288.09;5132745;27;20262;-71
2023/06/09 09:38:19;;;;;;;6.72;4.47;;;;;;;29.68;37.89;94283.84;5133055;27;20205;-71
2023/06/09 09:40:47;;;;;;;8.60;4.50;;;;;;;30.03;38.26;94280.91;5133478;27;20229;-70
2023/06/09 09:43:16;;;;;;;7.82;3.88;;;;;;;30.14;36.93;94281.25;5133330;27;20205;-70
2023/06/09 09:45:44;;;;;;;4.90;4.05;;;;;;;30.03;37.07;94286.50;5133481;27;20285;-70
2023/06/09 09:48:13;;;;;;;4.43;4.03;;;;;;;29.73;37.81;94284.50;5133344;27;20249;-70
2023/06/09 09:50:42;;;;;;;7.47;3.90;;;;;;;29.84;37.65;94284.84;5152357;27;20219;-71
2023/06/09 09:53:09;;;;;;;6.78;3.88;;;;;;;29.50;38.25;94278.22;5141445;27;20212;-72
2023/06/09 09:55:39;;;;;;;7.32;4.10;;;;;;;29.33;37.54;94280.41;5132731;27;20667;-71
2023/06/09 09:58:07;;;;;;;7.50;3.92;;;;;;;29.31;37.48;94270.94;5133347;27;20605;-71
2023/06/09 10:00:37;;;;;;;8.60;4.07;;;;;;;28.73;38.80;94277.03;5146325;27;20699;-71
2023/06/09 10:03:09;;;;;;;5.57;4.20;;;;;;;28.93;39.96;94274.75;5147991;27;20200;-70
2023/06/09 10:05:40;;;;;;;7.18;4.03;;;;;;;28.39;38.60;94272.28;5152946;27;20200;-70
2023/06/09 10:08:09;;;;;;;10.13;4.30;;;;;;;27.86;40.41;94268.50;5153545;27;20639;-70
2023/06/09 10:10:36;;;;;;;7.22;3.58;;;;;;;28.10;40.49;94266.09;5153462;27;20287;-72
2023/06/09 10:13:03;;;;;;;8.27;4.47;;;;;;;27.74;39.83;94258.16;5153880;27;20568;-71
2023/06/09 10:15:32;;;;;;;7.38;3.90;;;;;;;28.73;38.70;94265.91;5153443;27;20303;-71
2023/06/09 10:18:01;;;;;;;9.45;4.38;;;;;;;28.49;38.50;94267.56;5136854;27;20256;-72
2023/06/09 10:20:29;;;;;;;8.52;3.95;;;;;;;28.08;38.96;94266.53;5132340;27;20328;-72
2023/06/09 10:22:56;;;;;;;4.00;3.60;;;;;;;28.33;38.17;94264.94;5150508;27;20227;-72
2023/06/09 10:25:26;;;;;;;6.18;3.92;;;;;;;29.13;37.56;94259.66;5142113;27;20208;-72
2023/06/09 10:27:53;;;;;;;8.30;3.67;;;;;;;29.60;39.50;94263.03;5132905;27;20266;-72
2023/06/09 10:30:21;;;;;;;7.32;4.25;;;;;;;29.93;37.87;94259.75;5133685;27;20289;-72
2023/06/09 10:32:52;;;;;;;6.63;3.80;;;;;;;30.48;36.66;94248.69;5146202;27;20192;-70
2023/06/09 10:35:26;;;;;;;7.93;4.25;;;;;;;30.25;36.40;94248.03;5139091;27;20197;-70
2023/06/09 10:37:53;;;;;;;9.00;4.03;;;;;;;30.04;37.10;94243.34;5138192;27;20199;-71
2023/06/09 10:40:29;;;;;;;4.18;3.55;;;;;;;29.34;37.11;94253.28;5152000;27;20782;-70
2023/06/09 10:43:14;;;;;;;5.38;3.63;;;;;;;28.80;36.04;94246.16;5143489;27;20597;-70
2023/06/09 10:45:53;;;;;;;5.65;4.22;;;;;;;29.39;36.07;94249.91;5132049;27;20196;-70
2023/06/09 10:48:42;;;;;;;6.70;4.03;;;;;;;29.63;36.80;94241.81;5131741;27;20253;-71
2023/06/09 10:51:45;;;;;;;8.13;3.97;;;;;;;29.12;36.11;94246.94;5132108;27;20296;-70
2023/06/09 10:54:20;;;;;;;7.80;4.30;;;;;;;28.98;37.06;94237.88;5132384;27;20208;-71
2023/06/09 10:56:52;;;;;;;6.68;4.63;;;;;;;29.80;35.85;94234.72;5147543;27;20260;-70
2023/06/09 10:59:53;;;;;;;7.43;4.43;;;;;;;30.00;35.80;94232.31;5152710;27;20213;-72
2023/06/09 11:02:23;;;;;;;10.27;4.40;;;;;;;30.29;35.38;94212.31;5152611;27;20643;-71
2023/06/09 11:04:52;;;;;;;7.05;4.47;;;;;;;30.32;34.49;94225.38;5151000;27;20335;-71
2023/06/09 11:07:22;;;;;;;6.97;4.07;;;;;;;29.89;34.53;94222.78;5131877;27;20221;-71
2023/06/09 11:10:34;;;;;;;4.65;3.80;;;;;;;29.62;34.97;94224.28;5131527;27;20212;-71
2023/06/09 11:13:03;;;;;;;5.70;3.95;;;;;;;30.17;35.36;94213.25;5131675;27;20201;-71
2023/06/09 11:16:01;;;;;;;5.65;3.92;;;;;;;30.11;34.76;94215.09;5130741;27;20314;-70
2023/06/09 11:18:29;;;;;;;5.80;4.22;;;;;;;28.50;36.91;94224.53;5131072;27;20208;-71
2023/06/09 11:21:16;;;;;;;6.38;4.30;;;;;;;28.37;36.58;94215.44;5130914;27;20243;-70
2023/06/09 11:24:04;;;;;;;5.28;3.88;;;;;;;28.57;36.06;94205.53;5131280;27;20600;-70
2023/06/09 11:26:33;;;;;;;5.82;3.00;;;;;;;28.88;35.84;94208.41;5130811;27;20203;-70
2023/06/09 11:29:00;;;;;;;5.35;3.28;;;;;;;29.93;33.12;94206.69;5131333;27;20308;-71
2023/06/09 11:31:28;;;;;;;3.92;3.28;;;;;;;30.36;32.90;94203.63;5130789;27;20660;-71
2023/06/09 11:33:55;;;;;;;5.05;3.65;;;;;;;30.40;33.57;94187.47;5145196;27;20197;-71
2023/06/09 11:36:32;;;;;;;4.28;3.22;;;;;;;30.72;31.96;94190.91;5131153;27;20583;-71
2023/06/09 11:39:06;;;;;;;7.13;3.90;;;;;;;31.25;32.73;94191.25;5131124;27;20608;-71
2023/06/09 11:41:33;;;;;;;4.93;3.60;;;;;;;29.74;36.01;94196.69;5130395;27;20220;-71